createdAt,value
2016-12-19T00:00:02.673Z,5.51
2016-12-19T00:05:02.991Z,5.48
2016-12-19T00:10:02.349Z,5.42
2016-12-19T00:15:02.716Z,5.4
2016-12-19T00:20:03.169Z,5.38
2016-12-19T00:25:02.540Z,5.34
2016-12-19T00:30:02.873Z,5.31
2016-12-19T00:35:02.235Z,5.3
2016-12-19T00:40:02.563Z,5.28
2016-12-19T00:45:02.875Z,5.25
2016-12-19T00:50:02.231Z,5.23
2016-12-19T00:55:02.579Z,5.23
2016-12-19T01:00:02.941Z,5.2
2016-12-19T01:05:02.251Z,5.18
2016-12-19T01:10:02.598Z,5.17
2016-12-19T01:15:02.952Z,5.16
2016-12-19T01:20:02.396Z,5.13
2016-12-19T01:25:02.732Z,5.1
2016-12-19T01:30:03.113Z,5.09
2016-12-19T01:35:02.445Z,5.09
2016-12-19T01:40:02.794Z,5.06
2016-12-19T01:45:03.154Z,5.04
2016-12-19T01:50:02.517Z,5.02
2016-12-19T01:55:02.874Z,5.01
2016-12-19T02:00:02.213Z,4.98
2016-12-19T02:05:02.577Z,4.97
2016-12-19T02:10:02.931Z,4.94
2016-12-19T02:15:02.279Z,4.92
2016-12-19T02:20:02.711Z,4.9
2016-12-19T02:25:03.042Z,4.88
2016-12-19T02:30:02.393Z,4.86
2016-12-19T02:35:02.746Z,4.83
2016-12-19T02:40:03.049Z,4.81
2016-12-19T02:45:02.409Z,4.81
2016-12-19T02:50:02.801Z,4.8
2016-12-19T02:55:02.181Z,4.78
2016-12-19T03:00:02.556Z,4.77
2016-12-19T03:05:02.913Z,4.73
2016-12-19T03:10:02.277Z,4.72
2016-12-19T03:15:02.617Z,4.71
2016-12-19T03:20:03.075Z,4.68
2016-12-19T03:25:02.418Z,4.66
2016-12-19T03:30:02.765Z,4.65
2016-12-19T03:35:03.115Z,4.64
2016-12-19T03:40:02.454Z,4.63
2016-12-19T03:45:02.807Z,4.61
2016-12-19T03:50:02.181Z,4.6
2016-12-19T03:55:02.549Z,4.59
2016-12-19T04:00:02.885Z,4.59
2016-12-19T04:05:02.261Z,4.57
2016-12-19T04:10:02.622Z,4.56
2016-12-19T04:15:02.972Z,4.53
2016-12-19T04:20:02.373Z,4.53
2016-12-19T04:25:02.724Z,4.51
2016-12-19T04:30:03.058Z,4.51
2016-12-19T04:35:02.395Z,4.51
2016-12-19T04:40:02.789Z,4.5
2016-12-19T04:45:03.145Z,4.47
2016-12-19T04:50:02.500Z,4.47
2016-12-19T04:55:02.827Z,4.47
2016-12-19T05:00:02.224Z,4.44
2016-12-19T05:05:02.515Z,4.44
2016-12-19T05:10:02.880Z,4.42
2016-12-19T05:15:02.249Z,4.41
2016-12-19T05:20:02.668Z,4.37
2016-12-19T05:25:03.128Z,4.34
2016-12-19T05:30:02.557Z,4.28
2016-12-19T05:35:02.959Z,4.2
2016-12-19T05:40:02.368Z,4.14
2016-12-19T05:45:02.806Z,4.07
2016-12-19T05:50:02.225Z,4.03
2016-12-19T05:55:02.578Z,3.97
2016-12-19T06:00:02.922Z,3.94
2016-12-19T06:05:02.324Z,3.89
2016-12-19T06:10:02.748Z,3.84
2016-12-19T06:15:03.122Z,3.79
2016-12-19T06:20:02.563Z,3.72
2016-12-19T06:25:02.951Z,3.63
2016-12-19T06:30:02.321Z,3.55
2016-12-19T06:35:02.662Z,3.47
2016-12-19T06:40:03.010Z,3.44
2016-12-19T06:45:02.369Z,3.47
2016-12-19T06:50:02.724Z,3.47
2016-12-19T06:55:03.117Z,3.48
2016-12-19T07:00:02.489Z,3.48
2016-12-19T07:05:02.850Z,3.47
2016-12-19T07:10:02.261Z,3.45
2016-12-19T07:15:02.656Z,3.4
2016-12-19T07:20:03.092Z,3.38
2016-12-19T07:25:02.501Z,3.33
2016-12-19T07:30:02.875Z,3.28
2016-12-19T07:35:02.246Z,3.23
2016-12-19T07:40:02.579Z,3.2
2016-12-19T07:45:02.953Z,3.19
2016-12-19T07:50:02.347Z,3.21
2016-12-19T07:55:02.675Z,3.24
2016-12-19T08:00:03.042Z,3.25
2016-12-19T08:05:02.422Z,3.25
2016-12-19T08:10:02.780Z,3.23
2016-12-19T08:15:03.094Z,3.13
2016-12-19T08:20:02.553Z,3.09
2016-12-19T08:25:02.890Z,3.04
2016-12-19T08:30:02.294Z,3.03
2016-12-19T08:35:02.630Z,3.01
2016-12-19T08:40:02.999Z,2.97
2016-12-19T08:45:02.399Z,2.94
2016-12-19T08:50:02.769Z,2.9
2016-12-19T08:55:03.106Z,2.88
2016-12-19T09:00:02.462Z,2.91
2016-12-19T09:05:02.814Z,2.94
2016-12-19T09:10:02.171Z,3
2016-12-19T09:15:02.520Z,3.04
2016-12-19T09:20:02.974Z,3.1
2016-12-19T09:25:02.323Z,3.17
2016-12-19T09:30:02.720Z,3.28
2016-12-19T09:35:03.084Z,3.41
2016-12-19T09:40:02.387Z,3.52
2016-12-19T09:45:02.739Z,3.61
2016-12-19T09:50:03.118Z,3.71
2016-12-19T09:55:02.448Z,3.79
2016-12-19T10:00:02.787Z,3.87
2016-12-19T10:05:02.163Z,3.92
2016-12-19T10:10:02.474Z,4
2016-12-19T10:15:02.840Z,4.04
2016-12-19T10:20:02.308Z,4.07
2016-12-19T10:25:02.691Z,4.16
2016-12-19T10:30:03.020Z,4.21
2016-12-19T10:35:02.353Z,4.27
2016-12-19T10:40:02.721Z,4.3
2016-12-19T10:45:03.080Z,4.32
2016-12-19T10:50:02.477Z,4.38
2016-12-19T10:55:02.832Z,4.39
2016-12-19T11:00:02.217Z,4.38
2016-12-19T11:05:02.538Z,4.38
2016-12-19T11:10:02.914Z,4.43
2016-12-19T11:15:02.271Z,4.44
2016-12-19T11:20:02.703Z,4.43
2016-12-19T11:25:03.054Z,4.42
2016-12-19T11:30:02.446Z,4.43
2016-12-19T11:35:02.873Z,4.47
2016-12-19T11:40:02.266Z,4.54
2016-12-19T11:45:02.602Z,4.64
2016-12-19T11:50:02.955Z,4.74
2016-12-19T11:55:02.303Z,4.78
2016-12-19T12:00:02.703Z,4.8
2016-12-19T12:05:03.062Z,4.77
2016-12-19T12:10:02.462Z,4.76
2016-12-19T12:15:02.828Z,4.75
2016-12-19T12:20:02.292Z,4.72
2016-12-19T12:25:02.604Z,4.67
2016-12-19T12:30:02.989Z,4.64
2016-12-19T12:35:02.340Z,4.59
2016-12-19T12:40:02.725Z,4.52
2016-12-19T12:45:03.093Z,4.49
2016-12-19T12:50:02.449Z,4.46
2016-12-19T12:55:02.841Z,4.46
2016-12-19T13:00:02.188Z,4.44
2016-12-19T13:05:02.537Z,4.41
2016-12-19T13:10:02.885Z,4.35
2016-12-19T13:15:02.258Z,4.26
2016-12-19T13:20:02.678Z,4.2
2016-12-19T13:25:03.005Z,4.16
2016-12-19T13:30:02.409Z,4.09
2016-12-19T13:35:02.755Z,4.08
2016-12-19T13:40:03.122Z,4.05
2016-12-19T13:45:02.480Z,4.03
2016-12-19T13:50:02.838Z,4.01
2016-12-19T13:55:02.184Z,3.99
2016-12-19T14:00:02.527Z,3.93
2016-12-19T14:05:02.846Z,3.91
2016-12-19T14:10:02.214Z,3.89
2016-12-19T14:15:02.627Z,3.85
2016-12-19T14:20:03.059Z,3.8
2016-12-19T14:25:02.398Z,3.77
2016-12-19T14:30:02.759Z,3.74
2016-12-19T14:35:03.092Z,3.72
2016-12-19T14:40:02.475Z,3.68
2016-12-19T14:45:02.843Z,3.59
2016-12-19T14:50:02.191Z,3.48
2016-12-19T14:55:02.574Z,3.4
2016-12-19T15:00:02.975Z,3.34
2016-12-19T15:05:02.360Z,3.31
2016-12-19T15:10:02.722Z,3.3
2016-12-19T15:15:03.081Z,3.3
2016-12-19T15:20:02.505Z,3.32
2016-12-19T15:25:02.902Z,3.35
2016-12-19T15:30:02.301Z,3.38
2016-12-19T15:35:02.637Z,3.38
2016-12-19T15:40:02.972Z,3.4
2016-12-19T15:45:02.366Z,3.41
2016-12-19T15:50:02.748Z,3.4
2016-12-19T15:55:03.114Z,3.41
2016-12-19T16:00:02.476Z,3.42
2016-12-19T16:05:02.833Z,3.43
2016-12-19T16:10:02.160Z,3.44
2016-12-19T16:15:02.594Z,3.46
2016-12-19T16:20:03.003Z,3.46
2016-12-19T16:25:02.359Z,3.47
2016-12-19T16:30:02.711Z,3.45
2016-12-19T16:35:03.054Z,3.47
2016-12-19T16:40:02.449Z,3.47
2016-12-19T16:45:02.813Z,3.48
2016-12-19T16:50:02.170Z,3.47
2016-12-19T16:55:02.525Z,3.47
2016-12-19T17:00:02.891Z,3.45
2016-12-19T17:05:02.256Z,3.43
2016-12-19T17:10:02.601Z,3.38
2016-12-19T17:15:02.954Z,3.3
2016-12-19T17:20:02.379Z,3.21
2016-12-19T17:25:02.746Z,3.11
2016-12-19T17:30:03.132Z,2.98
2016-12-19T17:35:02.459Z,2.84
2016-12-19T17:40:02.793Z,2.69
2016-12-19T17:45:03.156Z,2.55
2016-12-19T17:50:02.530Z,2.4
2016-12-19T17:55:02.876Z,2.26
2016-12-19T18:00:02.263Z,2.16
2016-12-19T18:05:02.601Z,2.1
2016-12-19T18:10:02.948Z,2.02
2016-12-19T18:15:02.295Z,2
2016-12-19T18:20:02.759Z,1.99
2016-12-19T18:25:03.086Z,2.01
2016-12-19T18:30:02.430Z,2.01
2016-12-19T18:35:02.781Z,1.98
2016-12-19T18:40:03.154Z,1.93
2016-12-19T18:45:02.518Z,1.91
2016-12-19T18:50:02.868Z,1.87
2016-12-19T18:55:02.235Z,1.83
2016-12-19T19:00:02.595Z,1.79
2016-12-19T19:05:02.968Z,1.73
2016-12-19T19:10:02.380Z,1.73
2016-12-19T19:15:02.723Z,1.7
2016-12-19T19:20:02.156Z,1.67
2016-12-19T19:25:02.522Z,1.64
2016-12-19T19:30:02.901Z,1.57
2016-12-19T19:35:02.269Z,1.52
2016-12-19T19:40:02.646Z,1.46
2016-12-19T19:45:03.036Z,1.4
2016-12-19T19:50:02.363Z,1.32
2016-12-19T19:55:02.697Z,1.27
2016-12-19T20:00:03.057Z,1.24
2016-12-19T20:05:02.407Z,1.25
2016-12-19T20:10:03.100Z,1.27
2016-12-19T20:15:02.629Z,1.33
2016-12-19T20:20:03.044Z,1.38
2016-12-19T20:25:02.333Z,1.45
2016-12-19T20:30:02.657Z,1.5
2016-12-19T20:35:02.962Z,1.54
2016-12-19T20:40:02.647Z,1.58
2016-12-19T20:45:03.036Z,1.64
2016-12-19T20:50:02.398Z,1.67
2016-12-19T20:55:03.879Z,1.72
2016-12-19T21:00:04.089Z,1.75
2016-12-19T21:05:03.067Z,1.79
2016-12-19T21:10:02.676Z,1.81
2016-12-19T21:15:02.820Z,1.84
2016-12-19T21:20:02.968Z,1.84
2016-12-19T21:25:02.687Z,1.86
2016-12-19T21:30:03.108Z,1.87
2016-12-19T21:35:03.997Z,1.85
2016-12-19T21:40:02.910Z,1.85
2016-12-19T21:45:03.463Z,1.87
2016-12-19T21:50:03.284Z,1.86
2016-12-19T21:55:02.855Z,1.87
2016-12-19T22:00:03.208Z,1.85
2016-12-19T22:05:02.968Z,1.84
2016-12-19T22:10:02.373Z,1.84
2016-12-19T22:15:02.762Z,1.82
2016-12-19T22:20:02.213Z,1.81
2016-12-19T22:25:02.531Z,1.81
2016-12-19T22:30:02.902Z,1.8
2016-12-19T22:35:02.229Z,1.78
2016-12-19T22:40:02.612Z,1.78
2016-12-19T22:45:02.991Z,1.75
2016-12-19T22:50:02.371Z,1.72
2016-12-19T22:55:02.725Z,1.7
2016-12-19T23:00:03.078Z,1.69
2016-12-19T23:05:02.429Z,1.67
2016-12-19T23:10:02.797Z,1.62
2016-12-19T23:15:03.170Z,1.56
2016-12-19T23:20:02.623Z,1.52
2016-12-19T23:25:02.970Z,1.5
2016-12-19T23:30:02.317Z,1.5
2016-12-19T23:35:02.644Z,1.47
2016-12-19T23:40:02.995Z,1.5
2016-12-19T23:45:02.321Z,1.49
2016-12-19T23:50:02.636Z,1.49
2016-12-19T23:55:02.994Z,1.47
